sensor_id;sensor_type;location;lat;lon;timestamp;pressure;altitude;pressure_sealevel;temperature;humidity
12949;BME280;6539;49.476;8.484;2023-04-28T00:00:13;100330.09;;;16.72;49.29
12949;BME280;6539;49.476;8.484;2023-04-28T00:02:39;100322.34;;;16.67;49.95
12949;BME280;6539;49.476;8.484;2023-04-28T00:05:05;100320.47;;;16.64;50.45
12949;BME280;6539;49.476;8.484;2023-04-28T00:07:33;100321.13;;;16.68;50.62
12949;BME280;6539;49.476;8.484;2023-04-28T00:10:01;100318.91;;;16.63;51.00
12949;BME280;6539;49.476;8.484;2023-04-28T00:12:29;100317.38;;;16.62;51.49
12949;BME280;6539;49.476;8.484;2023-04-28T00:14:57;100309.63;;;16.57;51.77
12949;BME280;6539;49.476;8.484;2023-04-28T00:17:23;100310.09;;;16.56;52.11
12949;BME280;6539;49.476;8.484;2023-04-28T00:19:49;100296.31;;;16.52;51.74
12949;BME280;6539;49.476;8.484;2023-04-28T00:22:15;100288.13;;;16.49;52.18
12949;BME280;6539;49.476;8.484;2023-04-28T00:24:45;100278.69;;;16.46;52.93
12949;BME280;6539;49.476;8.484;2023-04-28T00:27:11;100281.16;;;16.44;52.89
12949;BME280;6539;49.476;8.484;2023-04-28T00:29:37;100278.94;;;16.39;53.81
12949;BME280;6539;49.476;8.484;2023-04-28T00:32:02;100276.16;;;16.39;53.83
12949;BME280;6539;49.476;8.484;2023-04-28T00:34:32;100271.41;;;16.40;54.18
12949;BME280;6539;49.476;8.484;2023-04-28T00:37:00;100269.09;;;16.38;54.83
12949;BME280;6539;49.476;8.484;2023-04-28T00:39:31;100261.78;;;16.32;54.37
12949;BME280;6539;49.476;8.484;2023-04-28T00:41:59;100249.03;;;16.34;54.32
12949;BME280;6539;49.476;8.484;2023-04-28T00:44:28;100266.41;;;16.35;54.71
12949;BME280;6539;49.476;8.484;2023-04-28T00:46:57;100254.59;;;16.34;54.28
12949;BME280;6539;49.476;8.484;2023-04-28T00:49:24;100252.69;;;16.31;54.61
12949;BME280;6539;49.476;8.484;2023-04-28T00:51:53;100245.16;;;16.32;54.36
12949;BME280;6539;49.476;8.484;2023-04-28T00:54:21;100252.69;;;16.31;54.16
12949;BME280;6539;49.476;8.484;2023-04-28T00:56:48;100244.38;;;16.31;54.36
12949;BME280;6539;49.476;8.484;2023-04-28T00:59:14;100238.84;;;16.31;55.65
12949;BME280;6539;49.476;8.484;2023-04-28T01:01:40;100235.75;;;16.29;57.01
12949;BME280;6539;49.476;8.484;2023-04-28T01:04:10;100225.00;;;16.31;56.82
12949;BME280;6539;49.476;8.484;2023-04-28T01:06:37;100226.88;;;16.34;57.21
12949;BME280;6539;49.476;8.484;2023-04-28T01:09:03;100217.13;;;16.30;57.28
12949;BME280;6539;49.476;8.484;2023-04-28T01:11:33;100216.16;;;16.24;56.76
12949;BME280;6539;49.476;8.484;2023-04-28T01:13:59;100212.38;;;16.18;57.85
12949;BME280;6539;49.476;8.484;2023-04-28T01:16:24;100216.50;;;16.13;57.61
12949;BME280;6539;49.476;8.484;2023-04-28T01:18:53;100208.53;;;16.15;58.67
12949;BME280;6539;49.476;8.484;2023-04-28T01:21:26;100210.06;;;16.16;58.95
12949;BME280;6539;49.476;8.484;2023-04-28T01:23:56;100213.31;;;16.15;59.22
12949;BME280;6539;49.476;8.484;2023-04-28T01:26:25;100216.19;;;16.11;59.89
12949;BME280;6539;49.476;8.484;2023-04-28T01:28:52;100218.75;;;16.06;58.84
12949;BME280;6539;49.476;8.484;2023-04-28T01:31:20;100214.88;;;16.03;58.90
12949;BME280;6539;49.476;8.484;2023-04-28T01:33:51;100209.34;;;16.03;58.71
12949;BME280;6539;49.476;8.484;2023-04-28T01:36:16;100205.47;;;16.00;58.35
12949;BME280;6539;49.476;8.484;2023-04-28T01:38:42;100209.13;;;15.97;59.30
12949;BME280;6539;49.476;8.484;2023-04-28T01:41:08;100216.88;;;16.02;59.40
12949;BME280;6539;49.476;8.484;2023-04-28T01:43:34;100221.84;;;16.08;60.12
12949;BME280;6539;49.476;8.484;2023-04-28T01:46:01;100214.31;;;16.08;60.28
12949;BME280;6539;49.476;8.484;2023-04-28T01:48:30;100218.09;;;16.01;60.94
12949;BME280;6539;49.476;8.484;2023-04-28T01:50:56;100217.53;;;15.94;60.78
12949;BME280;6539;49.476;8.484;2023-04-28T01:56:50;100227.41;;;15.95;59.58
12949;BME280;6539;49.476;8.484;2023-04-28T01:59:16;100225.44;;;15.95;59.45
12949;BME280;6539;49.476;8.484;2023-04-28T02:01:45;100226.97;;;15.96;58.89
12949;BME280;6539;49.476;8.484;2023-04-28T02:04:11;100217.00;;;15.99;58.50
12949;BME280;6539;49.476;8.484;2023-04-28T02:06:37;100215.44;;;15.98;58.29
12949;BME280;6539;49.476;8.484;2023-04-28T02:09:02;100217.88;;;15.96;58.25
12949;BME280;6539;49.476;8.484;2023-04-28T02:11:28;100216.34;;;15.95;58.37
12949;BME280;6539;49.476;8.484;2023-04-28T02:13:54;100226.50;;;15.98;58.46
12949;BME280;6539;49.476;8.484;2023-04-28T02:16:20;100228.84;;;15.99;58.43
12949;BME280;6539;49.476;8.484;2023-04-28T02:18:46;100220.53;;;15.99;58.50
12949;BME280;6539;49.476;8.484;2023-04-28T02:21:14;100219.31;;;16.00;57.60
12949;BME280;6539;49.476;8.484;2023-04-28T02:23:42;100212.34;;;15.96;57.72
12949;BME280;6539;49.476;8.484;2023-04-28T02:26:08;100214.44;;;15.92;57.91
12949;BME280;6539;49.476;8.484;2023-04-28T02:28:37;100213.44;;;15.98;58.40
12949;BME280;6539;49.476;8.484;2023-04-28T02:31:08;100218.19;;;15.98;59.23
12949;BME280;6539;49.476;8.484;2023-04-28T02:33:37;100223.31;;;15.99;59.60
12949;BME280;6539;49.476;8.484;2023-04-28T02:36:04;100216.88;;;15.90;60.24
12949;BME280;6539;49.476;8.484;2023-04-28T02:38:33;100217.03;;;15.86;60.50
12949;BME280;6539;49.476;8.484;2023-04-28T02:41:00;100218.78;;;15.93;60.71
12949;BME280;6539;49.476;8.484;2023-04-28T02:43:27;100225.19;;;15.90;60.51
12949;BME280;6539;49.476;8.484;2023-04-28T02:45:56;100228.41;;;15.88;60.25
12949;BME280;6539;49.476;8.484;2023-04-28T02:48:25;100230.72;;;15.90;60.23
12949;BME280;6539;49.476;8.484;2023-04-28T02:50:51;100226.97;;;15.96;60.46
12949;BME280;6539;49.476;8.484;2023-04-28T02:53:21;100221.22;;;15.91;60.75
12949;BME280;6539;49.476;8.484;2023-04-28T02:55:47;100219.66;;;15.90;60.94
12949;BME280;6539;49.476;8.484;2023-04-28T02:58:16;100218.13;;;15.89;61.22
12949;BME280;6539;49.476;8.484;2023-04-28T03:00:45;100198.19;;;15.81;61.79
12949;BME280;6539;49.476;8.484;2023-04-28T03:03:11;100201.19;;;15.74;61.96
12949;BME280;6539;49.476;8.484;2023-04-28T03:05:39;100189.03;;;15.72;62.14
12949;BME280;6539;49.476;8.484;2023-04-28T03:08:05;100187.69;;;15.64;62.52
12949;BME280;6539;49.476;8.484;2023-04-28T03:10:31;100179.19;;;15.58;62.53
12949;BME280;6539;49.476;8.484;2023-04-28T03:13:01;100181.41;;;15.51;62.45
12949;BME280;6539;49.476;8.484;2023-04-28T03:15:27;100175.13;;;15.50;62.16
12949;BME280;6539;49.476;8.484;2023-04-28T03:17:58;100169.44;;;15.54;62.44
12949;BME280;6539;49.476;8.484;2023-04-28T03:20:26;100171.00;;;15.55;61.81
12949;BME280;6539;49.476;8.484;2023-04-28T03:22:52;100155.75;;;15.50;61.64
12949;BME280;6539;49.476;8.484;2023-04-28T03:25:18;100145.69;;;15.44;62.54
12949;BME280;6539;49.476;8.484;2023-04-28T03:27:44;100146.41;;;15.32;64.07
12949;BME280;6539;49.476;8.484;2023-04-28T03:30:10;100151.06;;;15.35;64.04
12949;BME280;6539;49.476;8.484;2023-04-28T03:32:36;100154.38;;;15.29;64.76
12949;BME280;6539;49.476;8.484;2023-04-28T03:35:02;100144.22;;;15.26;65.77
12949;BME280;6539;49.476;8.484;2023-04-28T03:37:33;100143.88;;;15.24;65.42
12949;BME280;6539;49.476;8.484;2023-04-28T03:39:59;100143.97;;;15.21;64.66
12949;BME280;6539;49.476;8.484;2023-04-28T03:42:24;100139.78;;;15.16;65.01
12949;BME280;6539;49.476;8.484;2023-04-28T03:44:50;100156.03;;;15.14;65.44
12949;BME280;6539;49.476;8.484;2023-04-28T03:47:16;100147.09;;;15.23;65.33
12949;BME280;6539;49.476;8.484;2023-04-28T03:49:45;100160.69;;;15.30;65.93
12949;BME280;6539;49.476;8.484;2023-04-28T03:52:10;100148.53;;;15.27;65.93
12949;BME280;6539;49.476;8.484;2023-04-28T03:54:37;100147.53;;;15.21;64.74
12949;BME280;6539;49.476;8.484;2023-04-28T03:57:02;100137.59;;;15.11;65.17
12949;BME280;6539;49.476;8.484;2023-04-28T03:59:29;100155.72;;;15.12;65.26
12949;BME280;6539;49.476;8.484;2023-04-28T04:01:57;100160.56;;;15.08;66.36
12949;BME280;6539;49.476;8.484;2023-04-28T04:04:25;100158.16;;;15.10;66.91
12949;BME280;6539;49.476;8.484;2023-04-28T04:06:53;100155.72;;;15.12;67.65
12949;BME280;6539;49.476;8.484;2023-04-28T04:09:19;100154.50;;;15.13;67.83
12949;BME280;6539;49.476;8.484;2023-04-28T04:11:44;100159.78;;;15.08;68.21
12949;BME280;6539;49.476;8.484;2023-04-28T04:14:11;100155.69;;;15.00;68.56
12949;BME280;6539;49.476;8.484;2023-04-28T04:16:39;100155.38;;;14.98;68.61
12949;BME280;6539;49.476;8.484;2023-04-28T04:19:08;100155.38;;;14.85;69.36
12949;BME280;6539;49.476;8.484;2023-04-28T04:21:34;100152.13;;;14.74;69.34
12949;BME280;6539;49.476;8.484;2023-04-28T04:24:02;100148.69;;;14.70;68.99
12949;BME280;6539;49.476;8.484;2023-04-28T04:26:28;100150.00;;;14.53;69.82
12949;BME280;6539;49.476;8.484;2023-04-28T04:28:56;100137.38;;;14.52;70.15
12949;BME280;6539;49.476;8.484;2023-04-28T04:31:24;100130.66;;;14.53;70.68
12949;BME280;6539;49.476;8.484;2023-04-28T04:33:50;100143.78;;;14.49;71.12
12949;BME280;6539;49.476;8.484;2023-04-28T04:36:18;100134.53;;;14.56;71.13
12949;BME280;6539;49.476;8.484;2023-04-28T04:38:44;100136.28;;;14.62;70.88
12949;BME280;6539;49.476;8.484;2023-04-28T04:41:12;100142.19;;;14.64;70.46
12949;BME280;6539;49.476;8.484;2023-04-28T04:43:38;100134.56;;;14.68;69.91
12949;BME280;6539;49.476;8.484;2023-04-28T04:46:08;100138.84;;;14.69;68.95
12949;BME280;6539;49.476;8.484;2023-04-28T04:48:34;100133.97;;;14.61;69.51
12949;BME280;6539;49.476;8.484;2023-04-28T04:51:02;100129.44;;;14.67;69.33
12949;BME280;6539;49.476;8.484;2023-04-28T04:53:30;100137.09;;;14.75;68.97
12949;BME280;6539;49.476;8.484;2023-04-28T04:55:59;100138.19;;;14.78;69.10
12949;BME280;6539;49.476;8.484;2023-04-28T04:58:25;100139.50;;;14.73;69.37
12949;BME280;6539;49.476;8.484;2023-04-28T05:00:53;100141.75;;;14.78;69.58
12949;BME280;6539;49.476;8.484;2023-04-28T05:03:19;100138.66;;;14.76;70.85
12949;BME280;6539;49.476;8.484;2023-04-28T05:05:49;100136.88;;;14.82;71.09
12949;BME280;6539;49.476;8.484;2023-04-28T05:08:15;100139.09;;;14.87;71.26
12949;BME280;6539;49.476;8.484;2023-04-28T05:10:41;100138.22;;;14.90;71.23
12949;BME280;6539;49.476;8.484;2023-04-28T05:13:14;100138.53;;;14.92;71.41
12949;BME280;6539;49.476;8.484;2023-04-28T05:15:42;100137.53;;;14.86;72.36
12949;BME280;6539;49.476;8.484;2023-04-28T05:18:07;100135.69;;;14.83;72.94
12949;BME280;6539;49.476;8.484;2023-04-28T05:20:35;100132.00;;;14.61;73.60
12949;BME280;6539;49.476;8.484;2023-04-28T05:23:01;100131.22;;;14.61;74.96
12949;BME280;6539;49.476;8.484;2023-04-28T05:25:30;100132.91;;;14.29;76.29
12949;BME280;6539;49.476;8.484;2023-04-28T05:27:58;100126.72;;;13.93;78.37
12949;BME280;6539;49.476;8.484;2023-04-28T05:30:24;100126.66;;;13.97;78.80
12949;BME280;6539;49.476;8.484;2023-04-28T05:32:53;100134.50;;;13.98;78.93
12949;BME280;6539;49.476;8.484;2023-04-28T05:35:18;100138.56;;;13.94;80.17
12949;BME280;6539;49.476;8.484;2023-04-28T05:37:44;100134.78;;;13.88;81.02
12949;BME280;6539;49.476;8.484;2023-04-28T05:40:10;100142.09;;;13.94;80.78
12949;BME280;6539;49.476;8.484;2023-04-28T05:42:36;100139.44;;;13.74;82.41
12949;BME280;6539;49.476;8.484;2023-04-28T05:45:05;100138.72;;;13.87;82.79
12949;BME280;6539;49.476;8.484;2023-04-28T05:47:31;100124.41;;;13.92;82.79
12949;BME280;6539;49.476;8.484;2023-04-28T05:49:57;100120.81;;;13.95;84.68
12949;BME280;6539;49.476;8.484;2023-04-28T05:52:27;100124.91;;;14.03;84.18
12949;BME280;6539;49.476;8.484;2023-04-28T05:54:53;100126.03;;;14.05;83.93
12949;BME280;6539;49.476;8.484;2023-04-28T05:57:21;100131.91;;;14.07;84.10
12949;BME280;6539;49.476;8.484;2023-04-28T05:59:49;100135.66;;;14.13;82.70
12949;BME280;6539;49.476;8.484;2023-04-28T06:02:20;100132.22;;;14.09;83.58
12949;BME280;6539;49.476;8.484;2023-04-28T06:04:46;100137.75;;;14.09;83.50
12949;BME280;6539;49.476;8.484;2023-04-28T06:07:12;100147.94;;;14.12;83.43
12949;BME280;6539;49.476;8.484;2023-04-28T06:09:37;100159.84;;;14.09;83.66
12949;BME280;6539;49.476;8.484;2023-04-28T06:12:03;100162.50;;;14.13;84.57
12949;BME280;6539;49.476;8.484;2023-04-28T06:14:29;100172.56;;;14.19;84.18
12949;BME280;6539;49.476;8.484;2023-04-28T06:16:55;100181.91;;;14.25;83.16
12949;BME280;6539;49.476;8.484;2023-04-28T06:19:21;100169.56;;;14.14;84.55
12949;BME280;6539;49.476;8.484;2023-04-28T06:21:50;100172.00;;;14.12;85.85
12949;BME280;6539;49.476;8.484;2023-04-28T06:24:21;100146.13;;;14.06;85.97
12949;BME280;6539;49.476;8.484;2023-04-28T06:26:54;100138.94;;;14.08;87.38
12949;BME280;6539;49.476;8.484;2023-04-28T06:29:20;100143.09;;;14.16;87.84
12949;BME280;6539;49.476;8.484;2023-04-28T06:31:50;100161.91;;;14.05;88.19
12949;BME280;6539;49.476;8.484;2023-04-28T06:34:16;100164.56;;;14.09;88.08
12949;BME280;6539;49.476;8.484;2023-04-28T06:36:49;100145.44;;;14.02;88.85
12949;BME280;6539;49.476;8.484;2023-04-28T06:39:15;100143.78;;;14.04;88.31
12949;BME280;6539;49.476;8.484;2023-04-28T06:41:43;100142.66;;;14.02;89.49
12949;BME280;6539;49.476;8.484;2023-04-28T06:44:09;100138.19;;;14.08;90.25
12949;BME280;6539;49.476;8.484;2023-04-28T06:46:38;100134.75;;;14.04;90.21
12949;BME280;6539;49.476;8.484;2023-04-28T06:49:04;100141.03;;;14.04;90.62
12949;BME280;6539;49.476;8.484;2023-04-28T06:51:32;100145.72;;;13.91;91.72
12949;BME280;6539;49.476;8.484;2023-04-28T06:53:59;100155.13;;;13.94;92.23
12949;BME280;6539;49.476;8.484;2023-04-28T06:56:25;100147.63;;;13.94;91.46
12949;BME280;6539;49.476;8.484;2023-04-28T06:58:53;100154.09;;;14.04;92.16
12949;BME280;6539;49.476;8.484;2023-04-28T07:01:21;100145.34;;;14.05;92.35
12949;BME280;6539;49.476;8.484;2023-04-28T07:03:47;100146.25;;;14.15;92.17
12949;BME280;6539;49.476;8.484;2023-04-28T07:06:13;100145.94;;;14.13;92.17
12949;BME280;6539;49.476;8.484;2023-04-28T07:08:40;100142.66;;;14.18;92.54
12949;BME280;6539;49.476;8.484;2023-04-28T07:11:06;100140.91;;;14.24;92.29
12949;BME280;6539;49.476;8.484;2023-04-28T07:13:34;100142.81;;;14.27;91.83
12949;BME280;6539;49.476;8.484;2023-04-28T07:16:03;100142.81;;;14.27;92.03
12949;BME280;6539;49.476;8.484;2023-04-28T07:18:29;100141.94;;;14.30;91.95
12949;BME280;6539;49.476;8.484;2023-04-28T07:20:57;100145.41;;;14.18;92.20
12949;BME280;6539;49.476;8.484;2023-04-28T07:23:26;100144.63;;;14.17;92.93
12949;BME280;6539;49.476;8.484;2023-04-28T07:25:51;100137.13;;;14.18;92.83
12949;BME280;6539;49.476;8.484;2023-04-28T07:28:19;100126.22;;;14.27;92.92
12949;BME280;6539;49.476;8.484;2023-04-28T07:30:47;100130.69;;;14.37;91.98
12949;BME280;6539;49.476;8.484;2023-04-28T07:33:13;100137.69;;;14.41;93.00
12949;BME280;6539;49.476;8.484;2023-04-28T07:35:39;100141.44;;;14.47;93.19
12949;BME280;6539;49.476;8.484;2023-04-28T07:38:07;100133.31;;;14.57;91.95
12949;BME280;6539;49.476;8.484;2023-04-28T07:40:33;100133.16;;;14.47;92.38
12949;BME280;6539;49.476;8.484;2023-04-28T07:42:59;100115.47;;;14.45;93.01
12949;BME280;6539;49.476;8.484;2023-04-28T07:45:28;100110.50;;;14.40;93.74
12949;BME280;6539;49.476;8.484;2023-04-28T07:47:56;100110.50;;;14.40;94.15
12949;BME280;6539;49.476;8.484;2023-04-28T07:50:28;100107.75;;;14.40;94.01
12949;BME280;6539;49.476;8.484;2023-04-28T07:52:59;100121.63;;;14.36;94.39
12949;BME280;6539;49.476;8.484;2023-04-28T07:55:25;100127.16;;;14.36;93.95
12949;BME280;6539;49.476;8.484;2023-04-28T07:57:51;100139.44;;;14.35;94.73
12949;BME280;6539;49.476;8.484;2023-04-28T08:00:19;100130.84;;;14.46;94.96
12949;BME280;6539;49.476;8.484;2023-04-28T08:02:45;100130.19;;;14.42;95.40
12949;BME280;6539;49.476;8.484;2023-04-28T08:05:11;100125.50;;;14.39;95.58
12949;BME280;6539;49.476;8.484;2023-04-28T08:07:39;100120.00;;;14.39;96.64
12949;BME280;6539;49.476;8.484;2023-04-28T08:10:11;100114.38;;;14.42;96.19
12949;BME280;6539;49.476;8.484;2023-04-28T08:12:37;100115.78;;;14.34;96.85
12949;BME280;6539;49.476;8.484;2023-04-28T08:15:10;100115.91;;;14.43;97.54
12949;BME280;6539;49.476;8.484;2023-04-28T08:17:40;100124.88;;;14.47;96.99
12949;BME280;6539;49.476;8.484;2023-04-28T08:20:07;100131.00;;;14.55;96.83
12949;BME280;6539;49.476;8.484;2023-04-28T08:22:33;100126.91;;;14.60;97.79
12949;BME280;6539;49.476;8.484;2023-04-28T08:25:01;100110.75;;;14.58;98.33
12949;BME280;6539;49.476;8.484;2023-04-28T08:27:27;100118.28;;;14.58;98.54
12949;BME280;6539;49.476;8.484;2023-04-28T08:29:53;100123.16;;;14.66;98.06
12949;BME280;6539;49.476;8.484;2023-04-28T08:32:19;100134.00;;;14.73;98.19
12949;BME280;6539;49.476;8.484;2023-04-28T08:34:45;100137.97;;;14.72;98.04
12949;BME280;6539;49.476;8.484;2023-04-28T08:37:13;100126.59;;;14.83;98.23
12949;BME280;6539;49.476;8.484;2023-04-28T08:39:39;100131.34;;;14.82;98.60
12949;BME280;6539;49.476;8.484;2023-04-28T08:42:05;100135.56;;;14.74;100.00
12949;BME280;6539;49.476;8.484;2023-04-28T08:44:39;100135.69;;;14.83;100.00
12949;BME280;6539;49.476;8.484;2023-04-28T08:47:13;100128.28;;;15.05;99.36
12949;BME280;6539;49.476;8.484;2023-04-28T08:49:40;100119.88;;;15.21;98.20
12949;BME280;6539;49.476;8.484;2023-04-28T08:52:18;100127.84;;;15.19;97.61
12949;BME280;6539;49.476;8.484;2023-04-28T08:54:49;100125.63;;;15.27;98.14
12949;BME280;6539;49.476;8.484;2023-04-28T08:57:15;100128.16;;;15.21;98.33
12949;BME280;6539;49.476;8.484;2023-04-28T08:59:42;100131.06;;;15.31;98.68
12949;BME280;6539;49.476;8.484;2023-04-28T09:02:09;100135.13;;;15.39;98.39
12949;BME280;6539;49.476;8.484;2023-04-28T09:04:37;100132.59;;;15.32;98.34
12949;BME280;6539;49.476;8.484;2023-04-28T09:07:09;100132.13;;;15.20;99.78
12949;BME280;6539;49.476;8.484;2023-04-28T09:09:36;100139.22;;;15.21;99.83
12949;BME280;6539;49.476;8.484;2023-04-28T09:12:02;100143.44;;;15.26;99.67
12949;BME280;6539;49.476;8.484;2023-04-28T09:14:37;100140.78;;;15.35;98.59
12949;BME280;6539;49.476;8.484;2023-04-28T09:17:11;100143.44;;;15.39;98.86
12949;BME280;6539;49.476;8.484;2023-04-28T09:19:40;100141.31;;;15.43;98.40
12949;BME280;6539;49.476;8.484;2023-04-28T09:22:12;100146.19;;;15.39;98.75
12949;BME280;6539;49.476;8.484;2023-04-28T09:24:39;100146.31;;;15.35;99.74
12949;BME280;6539;49.476;8.484;2023-04-28T09:27:10;100142.78;;;15.35;100.00
12949;BME280;6539;49.476;8.484;2023-04-28T09:29:52;100138.22;;;15.41;100.00
12949;BME280;6539;49.476;8.484;2023-04-28T09:32:20;100138.34;;;15.50;99.78
12949;BME280;6539;49.476;8.484;2023-04-28T09:34:53;100139.34;;;15.56;100.00
12949;BME280;6539;49.476;8.484;2023-04-28T09:37:26;100132.25;;;15.67;99.33
12949;BME280;6539;49.476;8.484;2023-04-28T09:42:40;100139.09;;;15.75;99.63
12949;BME280;6539;49.476;8.484;2023-04-28T09:45:14;100143.06;;;15.87;100.00
12949;BME280;6539;49.476;8.484;2023-04-28T09:47:43;100138.16;;;15.91;98.59
12949;BME280;6539;49.476;8.484;2023-04-28T09:50:11;100145.38;;;15.88;98.69
12949;BME280;6539;49.476;8.484;2023-04-28T09:52:55;100152.44;;;15.89;98.98
12949;BME280;6539;49.476;8.484;2023-04-28T09:55:25;100145.13;;;15.95;98.86
12949;BME280;6539;49.476;8.484;2023-04-28T09:57:54;100146.91;;;15.89;98.69
12949;BME280;6539;49.476;8.484;2023-04-28T10:00:21;100136.03;;;15.95;98.75
12949;BME280;6539;49.476;8.484;2023-04-28T10:02:49;100145.88;;;15.96;98.58
12949;BME280;6539;49.476;8.484;2023-04-28T10:05:16;100153.81;;;16.07;97.89
12949;BME280;6539;49.476;8.484;2023-04-28T10:07:42;100143.09;;;16.09;97.12
12949;BME280;6539;49.476;8.484;2023-04-28T10:10:10;100141.78;;;16.00;98.29
12949;BME280;6539;49.476;8.484;2023-04-28T10:12:39;100140.44;;;16.05;98.41
12949;BME280;6539;49.476;8.484;2023-04-28T10:15:09;100139.31;;;16.15;97.70
12949;BME280;6539;49.476;8.484;2023-04-28T10:17:35;100155.38;;;16.08;98.54
12949;BME280;6539;49.476;8.484;2023-04-28T10:20:01;100145.16;;;16.17;98.31
12949;BME280;6539;49.476;8.484;2023-04-28T10:25:26;100152.38;;;16.15;98.34
12949;BME280;6539;49.476;8.484;2023-04-28T10:27:58;100146.63;;;16.09;99.44
12949;BME280;6539;49.476;8.484;2023-04-28T10:30:26;100152.94;;;16.10;100.00
12949;BME280;6539;49.476;8.484;2023-04-28T10:35:44;100148.63;;;16.09;100.00
12949;BME280;6539;49.476;8.484;2023-04-28T10:38:17;100150.94;;;16.10;100.00
12949;BME280;6539;49.476;8.484;2023-04-28T10:40:52;100143.16;;;16.18;100.00
12949;BME280;6539;49.476;8.484;2023-04-28T10:45:58;100148.91;;;16.23;100.00
12949;BME280;6539;49.476;8.484;2023-04-28T10:58:53;100136.78;;;16.30;100.00
12949;BME280;6539;49.476;8.484;2023-04-28T11:01:30;100137.31;;;16.37;99.33
12949;BME280;6539;49.476;8.484;2023-04-28T11:04:07;100138.53;;;16.36;100.00
12949;BME280;6539;49.476;8.484;2023-04-28T11:06:39;100129.13;;;16.34;100.00
12949;BME280;6539;49.476;8.484;2023-04-28T11:17:05;100130.50;;;16.51;100.00
12949;BME280;6539;49.476;8.484;2023-04-28T11:19:40;100128.38;;;16.55;100.00
12949;BME280;6539;49.476;8.484;2023-04-28T11:22:21;100134.13;;;16.60;100.00
12949;BME280;6539;49.476;8.484;2023-04-28T11:25:00;100124.88;;;16.63;100.00
12949;BME280;6539;49.476;8.484;2023-04-28T11:27:29;100132.31;;;16.66;100.00
12949;BME280;6539;49.476;8.484;2023-04-28T11:29:55;100129.22;;;16.64;100.00
12949;BME280;6539;49.476;8.484;2023-04-28T11:32:34;100128.28;;;16.67;100.00
12949;BME280;6539;49.476;8.484;2023-04-28T11:35:00;100131.53;;;16.66;100.00
12949;BME280;6539;49.476;8.484;2023-04-28T11:37:28;100133.41;;;16.69;100.00
12949;BME280;6539;49.476;8.484;2023-04-28T11:39:54;100134.28;;;16.66;100.00
12949;BME280;6539;49.476;8.484;2023-04-28T11:42:22;100145.56;;;16.71;100.00
12949;BME280;6539;49.476;8.484;2023-04-28T11:44:53;100138.75;;;16.63;100.00
12949;BME280;6539;49.476;8.484;2023-04-28T11:47:34;100120.25;;;16.60;100.00
12949;BME280;6539;49.476;8.484;2023-04-28T11:50:03;100116.25;;;16.61;100.00
12949;BME280;6539;49.476;8.484;2023-04-28T11:52:31;100124.09;;;16.63;100.00
12949;BME280;6539;49.476;8.484;2023-04-28T11:55:02;100123.34;;;16.62;100.00
12949;BME280;6539;49.476;8.484;2023-04-28T11:57:27;100122.75;;;16.67;100.00
12949;BME280;6539;49.476;8.484;2023-04-28T12:00:14;100135.72;;;16.70;100.00
12949;BME280;6539;49.476;8.484;2023-04-28T12:02:46;100134.47;;;16.71;100.00
12949;BME280;6539;49.476;8.484;2023-04-28T12:05:20;100135.41;;;16.68;100.00
12949;BME280;6539;49.476;8.484;2023-04-28T12:07:46;100132.31;;;16.66;100.00
12949;BME280;6539;49.476;8.484;2023-04-28T12:10:15;100131.38;;;16.69;100.00
12949;BME280;6539;49.476;8.484;2023-04-28T12:12:44;100128.75;;;16.66;100.00
12949;BME280;6539;49.476;8.484;2023-04-28T12:15:11;100140.94;;;16.68;100.00
12949;BME280;6539;49.476;8.484;2023-04-28T12:17:40;100153.88;;;16.71;100.00
12949;BME280;6539;49.476;8.484;2023-04-28T12:20:10;100145.88;;;16.73;100.00
12949;BME280;6539;49.476;8.484;2023-04-28T12:22:49;100139.44;;;16.76;100.00
12949;BME280;6539;49.476;8.484;2023-04-28T12:25:18;100132.03;;;16.73;100.00
12949;BME280;6539;49.476;8.484;2023-04-28T12:28:02;100126.81;;;16.75;100.00
12949;BME280;6539;49.476;8.484;2023-04-28T12:30:31;100120.94;;;16.73;100.00
12949;BME280;6539;49.476;8.484;2023-04-28T12:32:57;100115.38;;;16.73;100.00
12949;BME280;6539;49.476;8.484;2023-04-28T12:35:25;100130.34;;;16.76;100.00
12949;BME280;6539;49.476;8.484;2023-04-28T12:37:52;100123.75;;;16.83;100.00
12949;BME280;6539;49.476;8.484;2023-04-28T12:40:23;100130.91;;;16.93;100.00
12949;BME280;6539;49.476;8.484;2023-04-28T12:42:51;100125.38;;;17.02;100.00
12949;BME280;6539;49.476;8.484;2023-04-28T12:45:26;100133.13;;;17.07;100.00
12949;BME280;6539;49.476;8.484;2023-04-28T12:47:52;100136.22;;;17.09;100.00
12949;BME280;6539;49.476;8.484;2023-04-28T12:50:20;100129.16;;;17.17;100.00
12949;BME280;6539;49.476;8.484;2023-04-28T12:52:46;100130.75;;;17.27;100.00
12949;BME280;6539;49.476;8.484;2023-04-28T12:55:14;100137.56;;;17.35;100.00
12949;BME280;6539;49.476;8.484;2023-04-28T12:57:43;100135.09;;;17.37;100.00
12949;BME280;6539;49.476;8.484;2023-04-28T13:00:09;100130.00;;;17.35;100.00
12949;BME280;6539;49.476;8.484;2023-04-28T13:02:38;100131.09;;;17.38;100.00
12949;BME280;6539;49.476;8.484;2023-04-28T13:05:04;100137.59;;;17.44;100.00
12949;BME280;6539;49.476;8.484;2023-04-28T13:07:33;100125.84;;;17.49;100.00
12949;BME280;6539;49.476;8.484;2023-04-28T13:09:59;100125.75;;;17.52;100.00
12949;BME280;6539;49.476;8.484;2023-04-28T13:12:27;100126.69;;;17.59;100.00
12949;BME280;6539;49.476;8.484;2023-04-28T13:14:58;100119.78;;;17.63;100.00
12949;BME280;6539;49.476;8.484;2023-04-28T13:17:28;100123.63;;;17.66;100.00
12949;BME280;6539;49.476;8.484;2023-04-28T13:19:54;100126.56;;;17.71;100.00
12949;BME280;6539;49.476;8.484;2023-04-28T13:22:20;100115.16;;;17.78;100.00
12949;BME280;6539;49.476;8.484;2023-04-28T13:24:47;100114.56;;;17.83;100.00
12949;BME280;6539;49.476;8.484;2023-04-28T13:27:13;100110.72;;;17.90;100.00
12949;BME280;6539;49.476;8.484;2023-04-28T13:29:38;100110.38;;;17.97;100.00
12949;BME280;6539;49.476;8.484;2023-04-28T13:32:05;100105.91;;;17.99;100.00
12949;BME280;6539;49.476;8.484;2023-04-28T13:34:31;100117.34;;;18.01;100.00